Time;durP1;ratioP1;P1;durP2;ratioP2;P2;SDS_P1;SDS_P2;PMS_P1;PMS_P2;Temp;Humidity;BMP_temperature;BMP_pressure;BME280_temperature;BME280_humidity;BME280_pressure;Samples;Min_cycle;Max_cycle;Signal;HPM_P1;HPM_P2
2022/12/08 00:01:51;;;;;;;15.32;9.65;;;3.70;99.90;;;;;;5006936;28;20536;-62
2022/12/08 00:09:20;;;;;;;20.77;10.35;;;3.70;99.90;;;;;;4995521;28;20554;-61
2022/12/08 00:10:47;;;;;;;16.55;9.52;;;3.80;99.90;;;;;;5012560;28;19921;-62
2022/12/08 00:13:33;;;;;;;16.55;10.35;;;3.90;99.90;;;;;;5015049;28;20029;-62
2022/12/08 00:16:19;;;;;;;14.48;10.30;;;3.90;99.90;;;;;;5026497;28;20515;-63
2022/12/08 00:19:05;;;;;;;14.15;9.80;;;3.80;99.90;;;;;;5012134;28;20045;-62
2022/12/08 00:21:52;;;;;;;18.00;11.32;;;3.90;99.90;;;;;;4983195;28;20046;-62
2022/12/08 00:24:40;;;;;;;17.08;10.25;;;3.90;99.90;;;;;;5014124;28;20030;-63
2022/12/08 00:27:25;;;;;;;16.02;10.43;;;3.90;99.90;;;;;;5000119;28;20103;-62
2022/12/08 00:30:12;;;;;;;14.65;10.73;;;3.80;99.90;;;;;;5007628;28;20490;-61
2022/12/08 00:32:57;;;;;;;16.92;11.57;;;3.90;99.90;;;;;;4994413;28;20080;-62
2022/12/08 00:35:43;;;;;;;19.17;12.02;;;3.80;99.90;;;;;;5013489;28;20026;-63
2022/12/08 00:38:29;;;;;;;17.67;10.93;;;3.80;99.90;;;;;;5013736;28;20100;-63
2022/12/08 00:42:10;;;;;;;18.02;12.20;;;3.90;99.90;;;;;;5014413;28;20133;-64
2022/12/08 00:44:27;;;;;;;18.30;11.65;;;3.80;99.90;;;;;;5014126;28;20037;-62
2022/12/08 00:47:13;;;;;;;20.65;11.82;;;3.90;99.90;;;;;;5012279;28;20406;-62
2022/12/08 00:49:59;;;;;;;20.27;12.23;;;3.90;99.90;;;;;;5004276;28;20477;-62
2022/12/08 00:52:45;;;;;;;21.00;11.07;;;3.90;99.90;;;;;;4989636;28;20117;-65
2022/12/08 00:55:31;;;;;;;19.33;11.82;;;3.90;99.90;;;;;;4991594;28;20113;-62
2022/12/08 00:58:17;;;;;;;20.10;11.73;;;3.80;99.90;;;;;;5006558;28;20022;-62
2022/12/08 01:01:12;;;;;;;20.77;12.18;;;3.90;99.90;;;;;;5007076;28;20037;-62
2022/12/08 01:04:03;;;;;;;21.05;11.77;;;3.90;99.90;;;;;;5012733;28;20022;-63
2022/12/08 01:06:49;;;;;;;18.30;11.68;;;3.90;99.90;;;;;;5011488;28;20034;-61
2022/12/08 01:09:35;;;;;;;19.05;12.38;;;3.90;99.90;;;;;;5003170;28;20069;-62
2022/12/08 01:12:21;;;;;;;17.23;11.88;;;3.90;99.90;;;;;;5011670;28;20960;-62
2022/12/08 01:15:07;;;;;;;16.52;10.23;;;3.90;99.90;;;;;;4987758;28;20022;-61
2022/12/08 01:17:53;;;;;;;20.45;11.02;;;3.90;99.90;;;;;;5012273;28;20018;-61
2022/12/08 01:20:39;;;;;;;17.38;11.05;;;3.80;99.90;;;;;;4996247;28;20025;-61
2022/12/08 01:23:25;;;;;;;15.40;11.00;;;3.80;99.90;;;;;;4995794;28;20025;-62
2022/12/08 01:26:13;;;;;;;17.55;10.85;;;3.80;99.90;;;;;;5010887;28;20026;-62
2022/12/08 01:28:58;;;;;;;13.68;10.07;;;3.90;99.90;;;;;;5010881;28;20022;-62
2022/12/08 01:31:44;;;;;;;19.67;11.45;;;3.90;99.90;;;;;;5011575;28;20379;-62
2022/12/08 01:34:30;;;;;;;17.83;11.20;;;3.80;99.90;;;;;;4995725;28;20400;-62
2022/12/08 01:37:16;;;;;;;22.45;11.10;;;3.80;99.90;;;;;;5014249;28;20041;-62
2022/12/08 01:40:03;;;;;;;17.50;11.55;;;3.80;99.90;;;;;;4994553;28;20038;-61
2022/12/08 01:42:49;;;;;;;21.35;10.45;;;3.80;99.90;;;;;;4995915;28;20023;-62
2022/12/08 01:45:35;;;;;;;19.45;11.32;;;3.80;99.90;;;;;;4999424;28;20457;-62
2022/12/08 01:48:26;;;;;;;16.05;10.23;;;3.80;99.90;;;;;;4999545;28;20032;-62
2022/12/08 01:51:12;;;;;;;18.27;11.15;;;3.80;99.90;;;;;;4999325;28;20030;-63
2022/12/08 01:53:58;;;;;;;16.27;10.55;;;3.70;99.90;;;;;;5013382;28;20030;-62
2022/12/08 01:56:59;;;;;;;16.10;9.95;;;3.70;99.90;;;;;;5000077;28;20072;-61
2022/12/08 02:00:03;;;;;;;17.50;11.25;;;3.70;99.90;;;;;;5006335;28;20026;-62
2022/12/08 02:02:58;;;;;;;19.58;11.50;;;3.80;99.90;;;;;;5012337;28;20033;-61
2022/12/08 02:05:45;;;;;;;17.45;10.23;;;3.80;99.90;;;;;;5012394;28;20033;-62
2022/12/08 02:08:33;;;;;;;16.23;10.48;;;3.70;99.90;;;;;;5012910;28;20422;-63
2022/12/08 02:11:20;;;;;;;18.33;10.25;;;3.70;99.90;;;;;;4997254;28;20569;-62
2022/12/08 02:14:08;;;;;;;15.55;11.07;;;3.70;99.90;;;;;;5012721;28;20065;-63
2022/12/08 02:17:22;;;;;;;18.63;10.30;;;3.80;99.90;;;;;;4992966;28;20061;-62
2022/12/08 02:20:36;;;;;;;20.42;10.60;;;3.70;99.90;;;;;;4991686;28;20018;-62
2022/12/08 02:23:41;;;;;;;19.98;11.00;;;3.70;99.90;;;;;;4999175;28;20026;-62
2022/12/08 02:26:54;;;;;;;19.45;10.38;;;3.70;99.90;;;;;;5011170;28;20510;-61
2022/12/08 02:30:21;;;;;;;17.85;10.85;;;3.70;99.90;;;;;;5012312;28;20073;-62
2022/12/08 02:33:54;;;;;;;16.60;10.30;;;3.70;99.90;;;;;;5012193;28;20450;-61
2022/12/08 02:36:56;;;;;;;19.02;9.73;;;3.70;99.90;;;;;;5012088;28;20521;-62
2022/12/08 02:39:51;;;;;;;15.00;10.20;;;3.70;99.90;;;;;;4992725;28;20027;-62
2022/12/08 02:42:54;;;;;;;16.90;10.15;;;3.70;99.90;;;;;;5006667;28;20065;-61
2022/12/08 02:45:50;;;;;;;17.98;10.27;;;3.80;99.90;;;;;;5012104;28;20026;-62
2022/12/08 02:48:36;;;;;;;16.63;10.32;;;3.80;99.90;;;;;;4991841;28;20038;-61
2022/12/08 02:51:22;;;;;;;22.40;11.02;;;3.80;99.90;;;;;;4996440;28;20138;-61
2022/12/08 02:54:09;;;;;;;13.43;9.52;;;3.70;99.90;;;;;;5011216;28;20026;-61
2022/12/08 02:57:22;;;;;;;16.75;10.68;;;3.70;99.90;;;;;;5010698;28;20083;-60
2022/12/08 03:00:13;;;;;;;22.23;11.45;;;3.60;99.90;;;;;;5012349;28;20054;-61
2022/12/08 03:03:23;;;;;;;17.15;11.52;;;3.60;99.90;;;;;;5013010;28;20058;-61
2022/12/08 03:06:29;;;;;;;18.50;11.77;;;3.60;99.90;;;;;;5011443;28;20048;-63
2022/12/08 03:09:34;;;;;;;18.23;11.82;;;3.70;99.90;;;;;;5012746;28;20033;-62
2022/12/08 03:12:25;;;;;;;19.80;11.88;;;3.70;99.90;;;;;;4995815;28;20538;-61
2022/12/08 03:15:18;;;;;;;17.27;11.95;;;3.70;99.90;;;;;;5003730;28;20025;-63
2022/12/08 03:18:07;;;;;;;19.20;11.63;;;3.70;99.90;;;;;;4997720;28;20018;-62
2022/12/08 03:20:53;;;;;;;19.48;12.25;;;3.70;99.90;;;;;;5011522;28;20030;-64
2022/12/08 03:23:41;;;;;;;18.17;12.05;;;3.70;99.90;;;;;;5019438;28;20022;-69
2022/12/08 03:26:38;;;;;;;16.20;11.30;;;3.70;99.90;;;;;;5025918;28;20030;-63
2022/12/08 03:29:24;;;;;;;14.15;10.88;;;3.80;99.90;;;;;;5014421;28;20449;-63
2022/12/08 03:32:25;;;;;;;15.15;11.00;;;3.70;99.90;;;;;;4997224;28;20052;-62
2022/12/08 03:35:15;;;;;;;19.92;12.15;;;3.70;99.90;;;;;;5011498;28;20061;-62
2022/12/08 03:38:10;;;;;;;15.20;10.65;;;3.70;99.90;;;;;;5011937;28;20033;-63
2022/12/08 03:44:00;;;;;;;18.15;11.85;;;3.70;99.90;;;;;;5011866;28;20505;-63
2022/12/08 03:46:46;;;;;;;18.75;11.85;;;3.80;99.90;;;;;;5014887;28;20022;-64
2022/12/08 03:49:32;;;;;;;17.23;11.90;;;3.80;99.90;;;;;;5014211;28;20037;-62
2022/12/08 03:52:18;;;;;;;18.50;11.35;;;3.70;99.90;;;;;;5015123;28;20030;-63
2022/12/08 03:55:05;;;;;;;16.05;11.73;;;3.80;99.90;;;;;;5001627;28;20061;-65
2022/12/08 03:57:51;;;;;;;22.52;12.48;;;3.80;99.90;;;;;;5014753;28;20030;-62
2022/12/08 04:00:37;;;;;;;19.10;12.00;;;3.80;99.90;;;;;;5013818;28;20056;-64
2022/12/08 04:03:22;;;;;;;19.88;12.32;;;3.80;99.90;;;;;;5013682;28;20034;-64
2022/12/08 04:06:09;;;;;;;18.75;12.70;;;3.80;99.90;;;;;;5013382;28;20037;-63
2022/12/08 04:08:54;;;;;;;20.98;13.30;;;3.80;99.90;;;;;;5014640;28;20518;-63
2022/12/08 04:11:41;;;;;;;17.67;12.23;;;3.80;99.90;;;;;;5014375;28;20022;-63
2022/12/08 04:14:27;;;;;;;18.73;12.82;;;3.80;99.90;;;;;;5013939;28;20573;-63
2022/12/08 04:17:12;;;;;;;21.00;12.50;;;3.80;99.90;;;;;;4998588;28;20525;-65
2022/12/08 04:19:58;;;;;;;19.42;12.75;;;3.80;99.90;;;;;;5014912;28;20026;-65
2022/12/08 04:22:44;;;;;;;20.70;14.00;;;3.80;99.90;;;;;;5014386;28;20109;-63
2022/12/08 04:25:30;;;;;;;19.33;13.38;;;3.80;99.90;;;;;;5013508;28;20712;-61
2022/12/08 04:28:16;;;;;;;18.88;12.75;;;3.80;99.90;;;;;;4986238;28;20117;-63
2022/12/08 04:31:02;;;;;;;19.60;13.73;;;3.80;99.90;;;;;;5013495;28;20553;-63
2022/12/08 04:33:48;;;;;;;20.65;14.38;;;3.80;99.90;;;;;;5014564;28;20112;-62
2022/12/08 04:36:34;;;;;;;19.85;13.20;;;3.70;99.90;;;;;;5012795;28;20189;-63
2022/12/08 04:39:20;;;;;;;25.20;14.70;;;3.70;99.90;;;;;;4999979;28;20092;-62
2022/12/08 04:42:06;;;;;;;19.60;13.57;;;3.70;99.90;;;;;;5014048;28;20026;-61
2022/12/08 04:44:52;;;;;;;19.85;13.13;;;3.70;99.90;;;;;;4999332;28;20449;-64
2022/12/08 04:47:38;;;;;;;18.67;12.48;;;3.70;99.90;;;;;;4998888;28;20379;-62
2022/12/08 04:50:24;;;;;;;22.55;14.25;;;3.70;99.90;;;;;;5013765;28;20402;-63
2022/12/08 04:53:11;;;;;;;19.30;13.65;;;3.70;99.90;;;;;;4993592;28;20046;-63
2022/12/08 04:55:57;;;;;;;21.50;14.70;;;3.70;99.90;;;;;;4992732;28;20045;-64
2022/12/08 04:58:43;;;;;;;21.67;13.40;;;3.70;99.90;;;;;;5012960;28;20034;-62
2022/12/08 05:01:29;;;;;;;21.10;14.52;;;3.70;99.90;;;;;;5013195;28;20084;-64
2022/12/08 05:04:14;;;;;;;22.80;13.65;;;3.60;99.90;;;;;;4998626;28;20426;-64
2022/12/08 05:07:00;;;;;;;19.98;13.52;;;3.70;99.90;;;;;;4995300;28;20515;-63
2022/12/08 05:09:46;;;;;;;20.67;14.00;;;3.60;99.90;;;;;;4994957;28;20062;-62
2022/12/08 05:12:32;;;;;;;21.45;14.30;;;3.50;99.90;;;;;;5013123;28;20116;-64
2022/12/08 05:15:18;;;;;;;21.38;15.05;;;3.50;99.90;;;;;;5013214;28;20034;-65
2022/12/08 05:18:06;;;;;;;21.40;13.95;;;3.50;99.90;;;;;;5014024;28;20022;-63
2022/12/08 05:20:52;;;;;;;20.98;15.35;;;3.40;99.90;;;;;;5012782;28;20026;-62
2022/12/08 05:23:37;;;;;;;20.52;14.18;;;3.40;99.90;;;;;;5013168;28;20065;-62
2022/12/08 05:26:23;;;;;;;23.65;15.20;;;3.40;99.90;;;;;;5012020;28;20175;-63
2022/12/08 05:29:09;;;;;;;23.45;14.75;;;3.50;99.90;;;;;;5013373;28;20034;-62
2022/12/08 05:31:56;;;;;;;20.45;14.20;;;3.50;99.90;;;;;;5012557;28;20397;-63
2022/12/08 05:34:41;;;;;;;21.80;14.57;;;3.50;99.90;;;;;;5013198;28;20026;-64
2022/12/08 05:37:27;;;;;;;22.85;14.80;;;3.60;99.90;;;;;;5011827;28;20128;-64
2022/12/08 05:40:13;;;;;;;22.98;14.50;;;3.50;99.90;;;;;;5012702;28;20030;-63
2022/12/08 05:42:59;;;;;;;19.88;15.00;;;3.50;99.90;;;;;;4993868;28;20022;-62
2022/12/08 05:45:45;;;;;;;32.00;21.80;;;3.50;99.90;;;;;;4995036;28;20037;-61
2022/12/08 05:48:31;;;;;;;34.50;22.17;;;3.50;99.90;;;;;;5012790;28;20079;-65
2022/12/08 05:51:20;;;;;;;19.30;14.25;;;3.50;99.90;;;;;;5012122;28;20088;-62
2022/12/08 05:54:06;;;;;;;22.00;14.43;;;3.50;99.90;;;;;;5013232;28;20030;-63
2022/12/08 05:56:52;;;;;;;18.98;13.07;;;3.60;99.90;;;;;;5011282;28;20402;-63
2022/12/08 05:59:38;;;;;;;21.80;14.32;;;3.60;99.90;;;;;;5012470;28;20560;-62
2022/12/08 06:02:25;;;;;;;19.85;14.15;;;3.60;99.90;;;;;;4997535;28;20036;-62
2022/12/08 06:05:11;;;;;;;18.60;13.18;;;3.50;99.90;;;;;;5012208;28;20026;-62
2022/12/08 06:07:57;;;;;;;18.30;13.57;;;3.40;99.90;;;;;;4996558;28;20037;-63
2022/12/08 06:10:44;;;;;;;21.67;13.63;;;3.40;99.90;;;;;;5011723;28;20521;-63
2022/12/08 06:13:30;;;;;;;18.23;13.43;;;3.50;99.90;;;;;;4984706;28;20042;-61
2022/12/08 06:16:16;;;;;;;23.92;14.30;;;3.50;99.90;;;;;;5011054;28;20041;-63
2022/12/08 06:19:02;;;;;;;22.27;13.65;;;3.50;99.90;;;;;;5012396;28;20497;-64
2022/12/08 06:21:48;;;;;;;21.88;12.50;;;3.40;99.90;;;;;;4999405;28;20034;-62
2022/12/08 06:24:34;;;;;;;21.65;13.75;;;3.50;99.90;;;;;;5012126;28;20465;-61
2022/12/08 06:27:20;;;;;;;17.50;13.10;;;3.40;99.90;;;;;;4978050;28;20058;-61
2022/12/08 06:30:07;;;;;;;16.85;12.88;;;3.40;99.90;;;;;;4993753;28;20022;-62
2022/12/08 06:32:53;;;;;;;21.25;13.32;;;3.40;99.90;;;;;;5011932;28;20034;-59
2022/12/08 06:35:39;;;;;;;18.65;13.57;;;3.40;99.90;;;;;;5010554;28;20053;-62
2022/12/08 06:38:25;;;;;;;20.63;13.23;;;3.30;99.90;;;;;;5012222;28;20517;-62
2022/12/08 06:41:11;;;;;;;19.20;13.65;;;3.30;99.90;;;;;;5011709;28;20546;-63
2022/12/08 06:43:57;;;;;;;20.73;13.43;;;3.30;99.90;;;;;;5012459;28;20026;-64
2022/12/08 06:46:43;;;;;;;20.88;13.73;;;3.30;99.90;;;;;;5011643;28;20525;-64
2022/12/08 06:49:29;;;;;;;19.60;13.77;;;3.40;99.90;;;;;;4996571;28;20029;-64
2022/12/08 06:52:15;;;;;;;17.42;12.48;;;3.50;99.90;;;;;;5011320;28;20040;-64
2022/12/08 06:55:01;;;;;;;20.58;12.65;;;3.50;99.90;;;;;;5010409;28;20026;-63
2022/12/08 06:57:47;;;;;;;21.83;14.32;;;3.40;99.90;;;;;;4992461;28;20034;-63
2022/12/08 07:00:33;;;;;;;20.00;13.85;;;3.50;99.90;;;;;;4993652;28;20113;-64
2022/12/08 07:03:19;;;;;;;20.95;14.13;;;3.50;99.90;;;;;;4997555;28;20076;-63
2022/12/08 07:06:06;;;;;;;25.20;14.38;;;3.50;99.90;;;;;;4997414;28;20026;-63
2022/12/08 07:08:52;;;;;;;24.38;14.00;;;3.50;99.90;;;;;;5011081;28;20038;-64
2022/12/08 07:11:38;;;;;;;22.90;13.70;;;3.40;99.90;;;;;;5010919;28;20033;-62
2022/12/08 07:14:24;;;;;;;19.52;13.35;;;3.40;99.90;;;;;;5011118;28;20034;-62
2022/12/08 07:17:10;;;;;;;19.83;13.10;;;3.40;99.90;;;;;;5011271;28;20403;-62
2022/12/08 07:19:56;;;;;;;19.10;13.43;;;3.40;99.90;;;;;;5013145;28;20517;-63
2022/12/08 07:22:48;;;;;;;22.42;14.88;;;3.40;99.90;;;;;;5014291;28;20498;-63
2022/12/08 07:25:34;;;;;;;20.90;13.63;;;3.50;99.90;;;;;;5015600;28;20041;-62
2022/12/08 07:28:20;;;;;;;19.90;13.13;;;3.50;99.90;;;;;;5015183;28;20117;-64
2022/12/08 07:31:07;;;;;;;18.70;13.15;;;3.50;99.90;;;;;;4999540;28;20030;-67
2022/12/08 07:33:55;;;;;;;20.23;14.70;;;3.50;99.90;;;;;;4988700;28;20066;-62
2022/12/08 07:36:41;;;;;;;24.95;14.45;;;3.60;99.90;;;;;;5006787;28;20512;-64
2022/12/08 07:39:27;;;;;;;19.35;13.30;;;3.50;99.90;;;;;;5008492;28;20026;-60
2022/12/08 07:42:13;;;;;;;23.85;13.77;;;3.60;99.90;;;;;;4997916;28;20429;-62
2022/12/08 07:44:59;;;;;;;21.63;13.23;;;3.60;99.90;;;;;;5013240;28;20101;-65
2022/12/08 07:47:45;;;;;;;23.17;13.93;;;3.70;99.90;;;;;;5005652;28;20490;-64
2022/12/08 07:50:31;;;;;;;27.48;16.42;;;3.70;99.90;;;;;;4993920;28;20535;-66
2022/12/08 07:53:17;;;;;;;20.02;13.90;;;3.70;99.90;;;;;;4988365;28;20030;-63
2022/12/08 07:56:05;;;;;;;23.83;15.35;;;3.80;99.90;;;;;;4998472;28;20045;-63
2022/12/08 07:58:51;;;;;;;17.55;13.45;;;3.80;99.90;;;;;;5013618;28;20398;-64
2022/12/08 08:01:38;;;;;;;23.35;13.98;;;3.80;99.90;;;;;;5013548;28;20025;-64
2022/12/08 08:04:24;;;;;;;18.55;14.05;;;3.80;99.90;;;;;;5004879;28;20022;-63
2022/12/08 08:07:10;;;;;;;21.45;13.80;;;3.80;99.90;;;;;;5013335;28;20048;-63
2022/12/08 08:09:56;;;;;;;24.48;13.95;;;3.90;99.90;;;;;;4995734;28;20524;-64
2022/12/08 08:12:42;;;;;;;20.40;13.68;;;3.90;99.90;;;;;;5007966;28;20045;-63
2022/12/08 08:15:29;;;;;;;20.75;14.55;;;3.90;99.90;;;;;;5011346;28;20117;-62
2022/12/08 08:18:15;;;;;;;18.20;13.43;;;3.90;99.90;;;;;;5014385;28;20113;-65
2022/12/08 08:21:02;;;;;;;17.85;13.55;;;3.80;99.90;;;;;;4998731;28;20027;-61
2022/12/08 08:23:48;;;;;;;24.25;14.48;;;3.90;99.90;;;;;;5007496;28;20024;-63
2022/12/08 08:26:36;;;;;;;20.92;14.00;;;3.80;99.90;;;;;;5014244;28;20038;-64
2022/12/08 08:29:22;;;;;;;21.92;13.15;;;3.90;99.90;;;;;;5001047;28;20040;-64
2022/12/08 08:32:08;;;;;;;22.60;13.82;;;3.90;99.90;;;;;;5012671;28;20037;-64
2022/12/08 08:34:54;;;;;;;21.23;12.95;;;3.90;99.90;;;;;;4998929;28;20049;-64
2022/12/08 08:37:42;;;;;;;22.65;14.07;;;4.00;99.90;;;;;;4995792;28;20038;-65
2022/12/08 08:40:28;;;;;;;22.00;13.65;;;4.00;99.90;;;;;;4986080;28;20175;-63
2022/12/08 08:43:29;;;;;;;20.95;14.10;;;4.00;99.90;;;;;;5013722;28;20029;-64
2022/12/08 08:46:15;;;;;;;17.45;12.38;;;4.00;99.90;;;;;;5008026;28;20038;-64
2022/12/08 08:49:01;;;;;;;21.35;13.15;;;4.00;99.90;;;;;;5002409;28;20034;-63
2022/12/08 08:51:47;;;;;;;20.00;13.10;;;4.00;99.90;;;;;;5001785;28;20041;-64
2022/12/08 08:54:34;;;;;;;20.80;14.43;;;4.00;99.90;;;;;;5011337;28;20458;-63
2022/12/08 08:57:20;;;;;;;17.55;13.00;;;4.00;99.90;;;;;;5013207;28;20042;-65
2022/12/08 09:00:08;;;;;;;19.20;13.60;;;4.10;99.90;;;;;;5014154;28;20030;-62
2022/12/08 09:02:54;;;;;;;21.77;13.88;;;4.10;99.90;;;;;;5014950;28;20102;-63
2022/12/08 09:05:40;;;;;;;19.88;13.48;;;4.10;99.90;;;;;;5018534;28;20052;-65
2022/12/08 09:08:26;;;;;;;22.15;14.35;;;4.10;99.90;;;;;;5028431;28;20045;-65
2022/12/08 09:11:45;;;;;;;20.85;13.35;;;4.10;99.90;;;;;;5029867;28;20045;-68
2022/12/08 09:14:33;;;;;;;19.80;13.07;;;4.10;99.90;;;;;;5027610;28;20124;-66
2022/12/08 09:17:24;;;;;;;18.35;13.07;;;4.30;99.90;;;;;;5015868;28;20060;-65
2022/12/08 09:20:10;;;;;;;22.88;13.52;;;4.30;99.90;;;;;;4999900;28;20034;-64
2022/12/08 09:22:56;;;;;;;23.88;14.32;;;4.30;99.90;;;;;;4998910;28;20057;-65
2022/12/08 09:25:45;;;;;;;20.35;13.13;;;4.30;99.90;;;;;;5010012;28;20034;-65
2022/12/08 09:28:31;;;;;;;22.17;13.68;;;4.40;99.90;;;;;;5012367;28;20577;-64
2022/12/08 09:31:19;;;;;;;19.17;14.32;;;4.50;99.90;;;;;;5012605;28;20026;-64
2022/12/08 09:34:04;;;;;;;18.35;12.98;;;4.40;99.90;;;;;;5013329;28;20540;-63
2022/12/08 09:37:00;;;;;;;17.50;12.93;;;4.50;99.90;;;;;;5000594;28;20121;-62
2022/12/08 09:39:46;;;;;;;19.85;13.77;;;4.50;99.90;;;;;;5011824;28;20108;-65
2022/12/08 09:42:50;;;;;;;19.45;13.38;;;4.60;99.90;;;;;;5010679;28;20030;-64
2022/12/08 09:45:37;;;;;;;16.73;12.30;;;4.60;99.90;;;;;;5012224;28;20026;-65
2022/12/08 09:48:33;;;;;;;20.65;13.32;;;4.60;99.90;;;;;;4974186;28;20033;-66
2022/12/08 09:51:18;;;;;;;20.30;13.50;;;4.70;99.90;;;;;;5020667;28;20065;-64
2022/12/08 09:54:13;;;;;;;18.52;13.25;;;4.70;99.90;;;;;;5011588;28;20513;-64
2022/12/08 09:57:04;;;;;;;25.02;15.43;;;4.80;99.90;;;;;;5012101;28;20560;-65
2022/12/08 10:00:01;;;;;;;20.63;14.02;;;4.90;99.90;;;;;;4998049;28;20479;-66
2022/12/08 10:02:47;;;;;;;19.60;13.70;;;4.90;99.90;;;;;;5005414;28;20042;-65
2022/12/08 10:05:38;;;;;;;21.08;14.30;;;4.90;99.90;;;;;;4977817;28;20068;-63
2022/12/08 10:08:34;;;;;;;25.70;15.07;;;5.00;99.90;;;;;;5001468;28;20042;-64
2022/12/08 10:11:31;;;;;;;24.65;15.20;;;5.10;99.90;;;;;;5006243;28;20084;-65
2022/12/08 10:14:39;;;;;;;20.05;13.63;;;5.20;99.90;;;;;;5006964;28;20516;-64
2022/12/08 10:17:30;;;;;;;17.88;13.15;;;5.20;99.90;;;;;;5010472;28;20021;-65
2022/12/08 10:20:22;;;;;;;16.02;12.27;;;5.20;99.90;;;;;;5009206;28;20037;-65
2022/12/08 10:23:25;;;;;;;17.73;12.45;;;5.20;99.90;;;;;;5011666;28;20494;-64
2022/12/08 10:26:17;;;;;;;17.70;12.27;;;5.20;99.90;;;;;;5009191;28;20029;-65
2022/12/08 10:29:03;;;;;;;18.83;12.93;;;5.30;99.90;;;;;;5008533;28;20026;-65
2022/12/08 10:31:49;;;;;;;17.10;11.60;;;5.40;99.90;;;;;;4992429;28;20152;-64
2022/12/08 10:34:54;;;;;;;17.05;12.68;;;5.40;99.90;;;;;;5010703;28;20026;-64
2022/12/08 10:37:42;;;;;;;14.77;11.15;;;5.40;99.90;;;;;;5011049;28;20558;-64
2022/12/08 10:40:35;;;;;;;13.07;9.63;;;5.40;99.90;;;;;;5005410;28;20027;-63
2022/12/08 10:43:24;;;;;;;14.80;9.65;;;5.40;99.90;;;;;;5001754;28;20429;-62
2022/12/08 10:46:29;;;;;;;11.65;8.82;;;5.50;99.90;;;;;;5006601;28;20067;-65
2022/12/08 10:49:27;;;;;;;11.73;8.38;;;5.40;99.90;;;;;;4983491;28;20033;-65
2022/12/08 10:52:26;;;;;;;11.07;7.90;;;5.30;99.90;;;;;;5007098;28;20030;-65
2022/12/08 10:55:19;;;;;;;12.02;8.88;;;5.20;99.90;;;;;;5010281;28;20041;-63
2022/12/08 10:58:35;;;;;;;11.43;8.23;;;5.30;99.90;;;;;;4992166;28;20426;-65
2022/12/08 11:01:41;;;;;;;10.40;8.32;;;5.30;99.90;;;;;;5005317;28;20069;-67
2022/12/08 11:04:35;;;;;;;;;;;5.30;99.90;;;;;;4985253;28;20038;-64
2022/12/08 11:07:51;;;;;;;11.48;8.63;;;5.40;99.90;;;;;;4979004;28;19906;-65
2022/12/08 11:10:45;;;;;;;12.32;8.18;;;5.40;99.90;;;;;;4978227;28;20023;-65
2022/12/08 11:13:41;;;;;;;10.82;8.15;;;5.30;99.90;;;;;;4964888;28;20046;-62
2022/12/08 11:16:27;;;;;;;15.52;8.50;;;5.40;99.90;;;;;;4984706;28;20089;-63
2022/12/08 11:19:18;;;;;;;11.30;8.73;;;5.40;99.90;;;;;;4993001;28;20105;-66
2022/12/08 11:22:26;;;;;;;11.02;8.65;;;5.40;99.90;;;;;;4964665;28;20599;-66
2022/12/08 11:25:26;;;;;;;11.77;8.73;;;5.40;99.90;;;;;;4976069;28;20038;-65
2022/12/08 11:28:12;;;;;;;13.20;8.93;;;5.40;99.90;;;;;;4991019;28;20030;-64
2022/12/08 11:31:11;;;;;;;10.65;7.85;;;5.50;99.90;;;;;;4974829;28;20037;-64
2022/12/08 11:34:00;;;;;;;11.02;8.13;;;5.50;99.90;;;;;;5009726;28;20032;-68
2022/12/08 11:36:52;;;;;;;11.90;8.07;;;5.40;99.90;;;;;;4982979;28;20022;-65
2022/12/08 11:39:51;;;;;;;11.05;8.68;;;5.40;99.90;;;;;;4991126;28;20059;-65
2022/12/08 11:43:05;;;;;;;13.02;8.13;;;5.50;99.90;;;;;;4992143;28;20018;-65
2022/12/08 11:46:11;;;;;;;10.52;7.70;;;5.50;99.90;;;;;;5004734;28;20022;-67
2022/12/08 11:49:19;;;;;;;;;;;5.50;99.90;;;;;;4992873;28;20086;-66
2022/12/08 11:52:34;;;;;;;9.25;7.65;;;5.50;99.90;;;;;;4990701;28;19913;-65
2022/12/08 11:55:38;;;;;;;11.68;8.13;;;5.60;99.90;;;;;;4978731;28;20085;-64
2022/12/08 11:59:05;;;;;;;10.65;7.90;;;5.40;99.90;;;;;;4986640;28;20046;-63
2022/12/08 12:01:58;;;;;;;13.07;7.72;;;5.40;99.90;;;;;;4929375;28;20054;-65
2022/12/08 12:05:06;;;;;;;10.38;7.00;;;5.50;99.90;;;;;;4981330;28;20435;-66
2022/12/08 12:08:37;;;;;;;10.25;7.65;;;5.50;99.90;;;;;;5010194;28;20049;-64
2022/12/08 12:14:58;;;;;;;10.65;7.70;;;5.60;99.90;;;;;;4923902;28;20023;-66
2022/12/08 12:18:05;;;;;;;10.60;8.18;;;5.50;99.90;;;;;;5008435;28;20088;-65
2022/12/08 12:21:11;;;;;;;9.68;7.90;;;5.50;99.90;;;;;;5003516;28;20022;-65
2022/12/08 12:24:08;;;;;;;9.25;7.95;;;5.50;99.90;;;;;;4994395;28;20033;-65
2022/12/08 13:35:23;;;;;;;9.35;7.38;;;5.40;99.90;;;;;;4254473;26;20045;-62
2022/12/08 13:38:16;;;;;;;9.00;7.32;;;5.40;99.90;;;;;;5015753;28;20187;-64
2022/12/08 13:41:10;;;;;;;8.80;7.30;;;5.40;99.90;;;;;;5042336;28;20018;-65
2022/12/08 13:44:06;;;;;;;12.13;7.95;;;5.40;99.90;;;;;;5033747;28;20025;-63
2022/12/08 13:46:56;;;;;;;9.48;7.60;;;5.40;99.90;;;;;;5022993;28;20037;-64
2022/12/08 13:49:57;;;;;;;10.20;7.55;;;5.40;99.90;;;;;;5016801;28;21186;-63
2022/12/08 13:52:57;;;;;;;8.60;7.53;;;5.40;99.90;;;;;;5030558;28;20105;-63
2022/12/08 13:55:48;;;;;;;9.55;7.45;;;5.30;99.90;;;;;;5028684;28;20025;-63
2022/12/08 13:58:36;;;;;;;8.60;7.13;;;5.40;99.90;;;;;;5031331;28;20029;-63
2022/12/08 14:01:23;;;;;;;9.60;8.05;;;5.40;99.90;;;;;;5030272;28;20021;-65
2022/12/08 14:04:18;;;;;;;10.48;8.23;;;5.30;99.90;;;;;;5047622;28;20091;-64
2022/12/08 14:07:04;;;;;;;9.43;7.18;;;5.30;99.90;;;;;;5032818;28;20031;-64
2022/12/08 14:09:51;;;;;;;12.80;8.02;;;5.30;99.90;;;;;;5034716;28;20046;-61
2022/12/08 14:12:45;;;;;;;10.68;7.63;;;5.30;99.90;;;;;;5042342;28;20021;-65
2022/12/08 14:15:32;;;;;;;9.13;7.35;;;5.30;99.90;;;;;;5035114;28;20104;-64
2022/12/08 14:18:28;;;;;;;11.90;8.90;;;5.20;99.90;;;;;;5030564;28;20034;-63
2022/12/08 14:21:14;;;;;;;9.70;8.23;;;5.30;99.90;;;;;;5027632;28;20033;-64
2022/12/08 14:24:01;;;;;;;10.85;8.27;;;5.30;99.90;;;;;;5035412;28;20504;-67
2022/12/08 14:26:52;;;;;;;11.18;8.13;;;5.40;99.90;;;;;;4996595;28;20040;-64
2022/12/08 14:29:39;;;;;;;10.68;7.47;;;5.30;99.90;;;;;;5027649;28;20025;-66
2022/12/08 14:32:31;;;;;;;11.63;8.55;;;5.30;99.90;;;;;;5026850;28;20116;-66
2022/12/08 14:35:19;;;;;;;10.50;8.32;;;5.30;99.90;;;;;;5028560;28;20045;-66
2022/12/08 14:38:16;;;;;;;11.82;8.38;;;5.30;99.90;;;;;;5016795;28;20029;-66
2022/12/08 14:41:04;;;;;;;10.80;8.35;;;5.40;99.90;;;;;;5031420;28;20041;-63
2022/12/08 14:44:00;;;;;;;10.05;8.70;;;5.30;99.90;;;;;;5034156;28;20441;-65
2022/12/08 14:47:09;;;;;;;11.05;8.57;;;5.30;99.90;;;;;;5032310;28;20391;-67
2022/12/08 14:51:00;;;;;;;12.35;9.20;;;5.30;99.90;;;;;;5034287;28;20413;-64
2022/12/08 14:53:59;;;;;;;10.10;8.70;;;5.30;99.90;;;;;;4969536;28;20035;-62
2022/12/08 14:56:53;;;;;;;11.25;8.32;;;5.20;99.90;;;;;;5012826;28;20089;-61
2022/12/08 14:59:41;;;;;;;11.23;8.80;;;5.20;99.90;;;;;;5037275;28;20029;-62
2022/12/08 15:02:31;;;;;;;11.82;8.93;;;5.20;99.90;;;;;;5034176;28;20036;-64
2022/12/08 15:05:23;;;;;;;10.73;8.93;;;5.20;99.90;;;;;;5015262;28;20026;-64
2022/12/08 15:08:13;;;;;;;11.70;9.18;;;5.20;99.90;;;;;;5013862;28;20021;-63
2022/12/08 15:11:24;;;;;;;13.02;8.65;;;5.20;99.90;;;;;;5015102;28;20029;-62
2022/12/08 15:14:32;;;;;;;7.10;5.32;;;5.20;99.90;;;;;;5014498;28;20044;-62
2022/12/08 15:17:29;;;;;;;5.95;4.63;;;5.00;99.90;;;;;;5014702;28;20490;-61
2022/12/08 15:20:27;;;;;;;5.38;3.95;;;4.70;99.90;;;;;;5015728;28;20382;-64
2022/12/08 15:23:41;;;;;;;3.80;3.40;;;4.50;99.90;;;;;;5030348;28;20033;-64
2022/12/08 15:26:28;;;;;;;3.53;2.72;;;4.30;99.90;;;;;;5029134;28;20052;-66
2022/12/08 15:29:26;;;;;;;4.07;3.05;;;4.10;99.90;;;;;;5013935;28;20092;-63
2022/12/08 15:32:17;;;;;;;2.78;2.53;;;3.90;99.90;;;;;;5028581;28;20117;-63
2022/12/08 15:35:16;;;;;;;3.83;2.70;;;3.70;99.90;;;;;;5028340;28;20029;-68
2022/12/08 15:38:08;;;;;;;3.15;2.58;;;3.50;99.90;;;;;;5030234;28;20013;-64
2022/12/08 15:40:57;;;;;;;3.78;2.67;;;3.20;99.90;;;;;;5032420;28;20045;-66
2022/12/08 15:43:44;;;;;;;6.10;2.70;;;3.10;99.90;;;;;;5034854;28;20033;-65
2022/12/08 15:46:31;;;;;;;3.28;2.55;;;3.20;99.90;;;;;;5011071;28;20056;-64
2022/12/08 15:49:22;;;;;;;6.53;2.75;;;3.20;99.90;;;;;;5017631;28;20053;-66
2022/12/08 15:52:21;;;;;;;3.60;2.58;;;3.30;99.90;;;;;;5035179;28;20132;-65
2022/12/08 15:55:14;;;;;;;3.08;2.47;;;3.40;99.90;;;;;;5016376;28;20033;-67
2022/12/08 15:58:03;;;;;;;3.65;2.67;;;3.30;99.90;;;;;;5019077;28;20041;-65
2022/12/08 16:00:50;;;;;;;3.47;2.65;;;3.30;99.90;;;;;;5031251;28;20075;-66
2022/12/08 16:03:37;;;;;;;5.22;3.97;;;3.30;99.90;;;;;;5033458;28;20025;-66